Time;durP1;ratioP1;P1;durP2;ratioP2;P2;SDS_P1;SDS_P2;PMS_P1;PMS_P2;Temp;Humidity;BMP_temperature;BMP_pressure;BME280_temperature;BME280_humidity;BME280_pressure;Samples;Min_cycle;Max_cycle;Signal;HPM_P1;HPM_P2
2022/09/04 00:00:00;;;;;;;4.07;2.90;;;21.60;58.20;;;;;;4989176;28;20038;-52
2022/09/04 00:02:58;;;;;;;2.95;2.55;;;21.50;58.20;;;;;;4994175;28;20131;-50
2022/09/04 00:05:50;;;;;;;2.90;2.55;;;21.50;58.10;;;;;;4983880;28;20409;-50
2022/09/04 00:08:40;;;;;;;7.40;3.05;;;21.50;57.90;;;;;;5004495;28;20038;-52
2022/09/04 00:11:35;;;;;;;3.35;2.30;;;21.50;58.40;;;;;;5012898;28;20038;-52
2022/09/04 00:14:14;;;;;;;2.70;2.40;;;21.40;58.20;;;;;;5002201;28;20527;-53
2022/09/04 00:17:13;;;;;;;2.65;2.20;;;21.40;58.00;;;;;;5002038;28;20526;-49
2022/09/04 00:19:55;;;;;;;2.90;2.63;;;21.40;58.80;;;;;;4988987;28;20458;-48
2022/09/04 00:22:31;;;;;;;4.82;2.70;;;21.40;58.80;;;;;;4994588;28;20038;-50
2022/09/04 00:25:17;;;;;;;2.47;2.28;;;21.30;57.80;;;;;;5008555;28;20100;-51
2022/09/04 00:27:48;;;;;;;4.15;2.72;;;21.30;58.70;;;;;;5008219;28;20046;-51
2022/09/04 00:30:19;;;;;;;2.83;2.30;;;21.30;58.10;;;;;;5012290;28;20054;-47
2022/09/04 00:33:14;;;;;;;2.67;2.35;;;21.30;58.00;;;;;;4995904;28;20073;-51
2022/09/04 00:35:48;;;;;;;3.58;2.47;;;21.30;58.70;;;;;;5001533;28;20050;-52
2022/09/04 00:38:39;;;;;;;3.13;2.53;;;21.20;58.60;;;;;;5012727;28;20097;-49
2022/09/04 00:41:26;;;;;;;2.95;2.55;;;21.20;59.10;;;;;;4999536;28;20065;-48
2022/09/04 00:44:30;;;;;;;2.30;2.10;;;21.20;59.60;;;;;;5001875;28;20633;-51
2022/09/04 00:47:16;;;;;;;3.05;2.50;;;21.20;59.00;;;;;;4973466;28;20046;-50
2022/09/04 00:50:06;;;;;;;5.22;2.75;;;21.10;58.20;;;;;;4996482;28;20042;-49
2022/09/04 00:53:17;;;;;;;3.30;3.00;;;21.10;59.30;;;;;;5005355;28;20038;-52
2022/09/04 00:56:29;;;;;;;2.70;2.50;;;21.10;59.50;;;;;;4918449;28;20060;-52
2022/09/04 00:59:11;;;;;;;3.35;2.85;;;21.10;59.10;;;;;;4973650;28;20058;-49
2022/09/04 01:01:38;;;;;;;4.55;2.47;;;21.00;59.10;;;;;;5003639;28;20041;-51
2022/09/04 01:04:15;;;;;;;2.95;2.70;;;21.10;58.40;;;;;;5004166;28;20069;-48
2022/09/04 01:07:21;;;;;;;4.20;3.55;;;21.00;58.90;;;;;;5012488;28;20044;-49
2022/09/04 01:10:26;;;;;;;3.15;2.85;;;21.00;59.30;;;;;;4999507;28;20035;-49
2022/09/04 01:13:02;;;;;;;;;;;20.90;59.60;;;;;;4982326;28;20105;-48
2022/09/04 01:15:49;;;;;;;4.35;2.92;;;21.00;58.10;;;;;;4973596;28;19926;-49
2022/09/04 01:18:31;;;;;;;3.20;2.90;;;20.90;59.30;;;;;;4995496;28;20604;-50
2022/09/04 01:21:32;;;;;;;3.42;3.13;;;20.90;59.50;;;;;;5003637;28;20112;-48
2022/09/04 01:24:28;;;;;;;2.90;2.60;;;20.90;60.00;;;;;;4973593;28;20435;-49
2022/09/04 01:27:17;;;;;;;3.97;3.13;;;20.80;59.90;;;;;;4975494;28;20054;-50
2022/09/04 01:29:53;;;;;;;3.58;3.08;;;20.80;59.60;;;;;;4998859;28;20039;-49
2022/09/04 01:32:55;;;;;;;2.85;2.60;;;20.80;59.30;;;;;;4992927;28;20398;-52
2022/09/04 01:35:44;;;;;;;2.90;2.70;;;20.80;60.20;;;;;;4992390;28;20121;-49
2022/09/04 01:38:32;;;;;;;2.90;2.70;;;20.80;59.90;;;;;;4994662;28;20105;-49
2022/09/04 01:41:14;;;;;;;3.60;3.30;;;20.80;59.90;;;;;;4999544;28;20088;-53
2022/09/04 01:43:45;;;;;;;2.80;2.60;;;20.80;59.90;;;;;;5000726;28;20423;-50
2022/09/04 01:46:14;;;;;;;3.47;2.97;;;20.70;59.40;;;;;;5008605;28;20099;-49
2022/09/04 01:49:06;;;;;;;3.10;2.90;;;20.70;59.60;;;;;;4993020;28;20058;-49
2022/09/04 01:52:06;;;;;;;4.10;3.70;;;20.70;60.40;;;;;;4993860;28;20038;-46
2022/09/04 01:55:22;;;;;;;3.20;2.90;;;20.70;60.30;;;;;;4992052;28;20121;-49
2022/09/04 01:58:07;;;;;;;4.13;3.25;;;20.70;60.40;;;;;;4986940;28;20042;-47
2022/09/04 02:00:51;;;;;;;3.60;3.30;;;20.60;60.20;;;;;;5000613;28;20565;-51
2022/09/04 02:03:40;;;;;;;3.80;3.33;;;20.60;60.20;;;;;;5002386;28;20041;-48
2022/09/04 02:06:21;;;;;;;4.55;3.22;;;20.60;60.20;;;;;;4998241;28;20557;-49
2022/09/04 02:09:04;;;;;;;3.72;3.42;;;20.60;60.60;;;;;;5003776;28;20043;-48
2022/09/04 02:11:31;;;;;;;4.20;3.50;;;20.60;59.80;;;;;;4972372;28;20070;-51
2022/09/04 02:14:34;;;;;;;3.85;3.42;;;20.50;59.30;;;;;;4980808;28;20034;-52
2022/09/04 02:17:24;;;;;;;3.90;3.50;;;20.50;60.60;;;;;;4999407;28;20502;-48
2022/09/04 02:20:08;;;;;;;4.15;3.83;;;20.50;60.40;;;;;;5008162;28;20042;-49
2022/09/04 02:22:55;;;;;;;4.10;3.35;;;20.50;60.10;;;;;;4999859;28;20046;-49
2022/09/04 02:25:42;;;;;;;4.15;3.60;;;20.40;59.50;;;;;;4994276;28;20038;-48
2022/09/04 02:28:17;;;;;;;3.83;3.53;;;20.40;60.30;;;;;;5000281;28;20062;-51
2022/09/04 02:30:54;;;;;;;3.97;3.53;;;20.40;60.40;;;;;;5011381;28;20120;-49
2022/09/04 02:33:59;;;;;;;4.07;3.63;;;20.30;60.30;;;;;;5000339;28;20042;-52
2022/09/04 02:36:55;;;;;;;4.90;3.92;;;20.40;61.20;;;;;;5002731;28;20037;-52
2022/09/04 02:40:01;;;;;;;3.85;3.55;;;20.40;61.20;;;;;;5005147;28;20038;-52
2022/09/04 02:43:06;;;;;;;3.95;3.65;;;20.30;61.20;;;;;;4993308;28;20445;-52
2022/09/04 02:45:59;;;;;;;3.13;2.83;;;20.30;61.10;;;;;;4998936;28;20045;-48
2022/09/04 02:49:01;;;;;;;4.07;3.78;;;20.30;61.00;;;;;;4996940;28;20125;-49
2022/09/04 02:51:46;;;;;;;4.82;3.35;;;20.20;60.90;;;;;;5001645;28;20461;-49
2022/09/04 02:54:34;;;;;;;3.78;3.47;;;20.20;61.40;;;;;;5003751;28;20556;-49
2022/09/04 02:57:38;;;;;;;3.60;3.30;;;20.20;61.60;;;;;;4999121;28;20113;-52
2022/09/04 03:00:19;;;;;;;4.05;3.65;;;20.20;61.80;;;;;;4990487;28;20054;-50
2022/09/04 03:03:04;;;;;;;3.67;3.38;;;20.20;61.50;;;;;;4974979;28;20418;-49
2022/09/04 03:05:56;;;;;;;4.28;3.30;;;20.20;62.10;;;;;;4999037;28;20043;-48
2022/09/04 03:08:33;;;;;;;3.60;3.30;;;20.10;61.60;;;;;;4962193;28;20086;-47
2022/09/04 03:11:32;;;;;;;3.50;3.20;;;20.20;62.00;;;;;;4989759;28;20042;-49
2022/09/04 03:14:03;;;;;;;6.97;3.85;;;20.10;62.00;;;;;;4996771;28;20040;-49
2022/09/04 03:16:54;;;;;;;3.22;2.92;;;20.20;61.50;;;;;;5005523;28;20092;-52
2022/09/04 03:19:53;;;;;;;3.78;3.47;;;20.10;61.70;;;;;;5001879;28;20073;-51
2022/09/04 03:22:40;;;;;;;3.30;3.00;;;20.10;62.00;;;;;;4996536;28;20096;-48
2022/09/04 03:25:44;;;;;;;3.95;3.10;;;20.10;61.70;;;;;;5002032;28;20042;-47
2022/09/04 03:28:31;;;;;;;3.38;3.03;;;20.10;62.70;;;;;;5004126;28;20125;-50
2022/09/04 03:31:20;;;;;;;3.45;3.15;;;20.10;62.40;;;;;;5001647;28;20042;-49
2022/09/04 03:34:05;;;;;;;3.40;3.13;;;20.10;62.40;;;;;;5006112;28;20050;-49
2022/09/04 03:36:51;;;;;;;3.72;3.28;;;20.10;62.50;;;;;;5010282;28;20567;-49
2022/09/04 03:40:00;;;;;;;3.88;2.95;;;20.10;62.50;;;;;;4990180;28;20062;-49
2022/09/04 03:42:41;;;;;;;4.03;3.35;;;20.10;62.60;;;;;;4988291;28;20100;-49
2022/09/04 03:45:14;;;;;;;3.88;3.33;;;20.10;62.40;;;;;;5002218;28;20038;-47
2022/09/04 03:48:13;;;;;;;3.28;3.00;;;20.00;61.60;;;;;;5010210;28;20053;-49
2022/09/04 03:50:47;;;;;;;3.40;3.08;;;20.10;62.30;;;;;;4935597;28;20065;-50
2022/09/04 03:53:32;;;;;;;3.83;3.50;;;20.00;61.60;;;;;;5000814;28;20073;-50
2022/09/04 03:56:43;;;;;;;4.20;3.60;;;20.00;62.00;;;;;;5009753;28;20049;-49
2022/09/04 03:59:33;;;;;;;3.78;3.38;;;20.00;61.70;;;;;;4945729;28;20069;-49
2022/09/04 04:02:19;;;;;;;3.22;2.92;;;20.00;61.20;;;;;;4981392;28;20046;-49
2022/09/04 04:05:13;;;;;;;3.50;3.20;;;20.00;61.30;;;;;;5010375;28;20049;-49
2022/09/04 04:07:52;;;;;;;3.05;2.83;;;19.90;61.20;;;;;;4990027;28;20038;-49
2022/09/04 04:10:32;;;;;;;4.20;3.28;;;19.90;60.70;;;;;;4998556;28;20558;-49
2022/09/04 04:13:30;;;;;;;3.83;3.22;;;19.90;61.20;;;;;;4989643;28;20043;-49
2022/09/04 04:16:26;;;;;;;3.53;3.22;;;19.90;61.30;;;;;;4995138;28;20521;-49
2022/09/04 04:19:09;;;;;;;3.20;2.95;;;19.80;61.00;;;;;;4998222;28;20426;-50
2022/09/04 04:22:26;;;;;;;3.15;2.85;;;19.80;60.90;;;;;;4989614;28;20046;-52
2022/09/04 04:25:16;;;;;;;3.20;2.67;;;19.70;61.20;;;;;;4981046;28;20042;-49
2022/09/04 04:28:00;;;;;;;3.83;3.22;;;19.70;61.20;;;;;;4996954;28;20042;-47
2022/09/04 04:30:51;;;;;;;3.97;3.08;;;19.70;61.10;;;;;;4987296;28;20077;-49
2022/09/04 04:33:31;;;;;;;3.47;2.95;;;19.70;61.00;;;;;;5000614;28;20038;-49
2022/09/04 04:36:23;;;;;;;4.60;3.70;;;19.60;60.20;;;;;;5000315;28;20458;-49
2022/09/04 04:39:34;;;;;;;3.42;3.13;;;19.60;60.60;;;;;;4973799;28;20137;-48
2022/09/04 04:42:19;;;;;;;3.00;2.70;;;19.50;60.30;;;;;;5004689;28;20121;-49
2022/09/04 04:48:09;;;;;;;3.53;2.63;;;19.40;60.00;;;;;;5001659;28;20046;-50
2022/09/04 04:51:00;;;;;;;3.28;2.83;;;19.40;60.10;;;;;;5002904;28;20104;-51
2022/09/04 04:53:44;;;;;;;3.00;2.72;;;19.30;60.10;;;;;;5003990;28;20070;-50
2022/09/04 04:56:44;;;;;;;3.80;3.50;;;19.20;60.20;;;;;;4999493;28;20061;-52
2022/09/04 04:59:29;;;;;;;3.83;3.03;;;19.20;60.30;;;;;;4999826;28;20042;-53
2022/09/04 05:02:17;;;;;;;3.00;2.80;;;19.20;60.30;;;;;;5000922;28;20052;-48
2022/09/04 05:05:04;;;;;;;3.13;2.67;;;19.10;60.10;;;;;;5001248;28;20038;-49
2022/09/04 05:07:40;;;;;;;3.00;2.70;;;19.10;60.30;;;;;;5004994;28;20066;-50
2022/09/04 05:10:39;;;;;;;3.25;2.88;;;19.10;60.40;;;;;;4993892;28;20490;-48
2022/09/04 05:13:43;;;;;;;2.80;2.55;;;19.00;60.40;;;;;;4993316;28;20109;-49
2022/09/04 05:16:34;;;;;;;3.20;2.90;;;19.00;60.80;;;;;;5004457;28;20129;-48
2022/09/04 05:19:25;;;;;;;4.35;2.70;;;19.00;60.80;;;;;;5001430;28;20042;-51
2022/09/04 05:22:03;;;;;;;4.22;3.10;;;19.00;60.90;;;;;;4992718;28;20042;-48
2022/09/04 05:25:12;;;;;;;2.85;2.63;;;19.00;61.00;;;;;;5000418;28;20132;-49
2022/09/04 05:27:57;;;;;;;3.30;3.00;;;18.90;61.30;;;;;;5001754;28;20092;-50
2022/09/04 05:30:47;;;;;;;3.40;3.03;;;19.00;61.40;;;;;;5009450;28;20271;-49
2022/09/04 05:33:57;;;;;;;3.22;2.92;;;18.90;61.50;;;;;;4995632;28;20088;-49
2022/09/04 05:36:45;;;;;;;3.00;2.70;;;18.90;61.70;;;;;;4921497;29;20055;-48
2022/09/04 05:39:29;;;;;;;2.83;2.63;;;18.90;61.80;;;;;;4972319;28;20121;-47
2022/09/04 05:42:10;;;;;;;3.80;3.13;;;19.00;62.00;;;;;;4998358;28;20052;-47
2022/09/04 05:45:00;;;;;;;3.03;2.72;;;18.90;61.90;;;;;;5001375;28;20089;-47
2022/09/04 05:47:49;;;;;;;4.13;3.72;;;19.00;62.70;;;;;;4990514;28;20061;-51
2022/09/04 05:50:59;;;;;;;3.47;3.17;;;19.00;62.60;;;;;;4983262;28;20069;-53
2022/09/04 05:53:57;;;;;;;3.63;3.33;;;19.00;63.00;;;;;;4992231;28;20046;-53
2022/09/04 05:56:53;;;;;;;3.67;3.38;;;19.10;63.00;;;;;;4949161;28;20073;-51
2022/09/04 05:59:36;;;;;;;5.80;3.85;;;19.20;63.40;;;;;;4982220;28;20046;-50
2022/09/04 06:02:46;;;;;;;3.45;3.15;;;19.20;63.50;;;;;;4995137;28;20050;-53
2022/09/04 06:06:02;;;;;;;3.70;3.25;;;19.20;64.10;;;;;;5009314;28;20116;-53
2022/09/04 06:08:56;;;;;;;4.20;3.60;;;19.30;64.10;;;;;;5004147;28;20043;-51
2022/09/04 06:12:06;;;;;;;4.03;3.45;;;19.40;64.30;;;;;;4984269;28;20038;-50
2022/09/04 06:14:46;;;;;;;4.68;3.53;;;19.40;64.50;;;;;;4992766;28;20041;-50
2022/09/04 06:17:30;;;;;;;5.22;4.05;;;19.40;64.60;;;;;;4996996;28;20590;-51
2022/09/04 06:20:14;;;;;;;4.68;4.18;;;19.50;64.60;;;;;;4978612;28;20053;-54
2022/09/04 06:23:08;;;;;;;4.35;3.95;;;19.60;64.90;;;;;;4986676;28;20536;-52
2022/09/04 06:26:00;;;;;;;3.80;3.50;;;19.70;65.30;;;;;;4981899;28;20042;-51
2022/09/04 06:28:29;;;;;;;4.37;3.97;;;19.80;65.50;;;;;;4991367;28;20038;-52
2022/09/04 06:31:09;;;;;;;4.90;3.80;;;19.80;64.40;;;;;;5002245;28;20073;-51
2022/09/04 06:34:03;;;;;;;4.45;4.05;;;19.90;65.60;;;;;;4982485;28;20399;-52
2022/09/04 06:36:55;;;;;;;4.80;3.65;;;19.90;65.70;;;;;;4985559;28;20671;-53
2022/09/04 06:39:33;;;;;;;4.75;4.35;;;20.00;65.70;;;;;;4988155;28;20042;-52
2022/09/04 06:42:33;;;;;;;4.05;3.55;;;20.10;65.80;;;;;;4997919;28;20034;-53
2022/09/04 06:45:19;;;;;;;6.57;4.32;;;20.20;66.00;;;;;;4951511;28;20061;-51
2022/09/04 06:47:55;;;;;;;4.18;3.78;;;20.20;66.10;;;;;;4989410;28;20030;-50
2022/09/04 06:50:33;;;;;;;5.75;4.22;;;20.30;65.80;;;;;;4997308;28;20042;-52
2022/09/04 06:53:27;;;;;;;3.97;3.65;;;20.30;66.00;;;;;;4988104;28;20454;-52
2022/09/04 06:56:13;;;;;;;4.65;4.10;;;20.40;66.30;;;;;;4987927;28;20522;-54
2022/09/04 06:59:05;;;;;;;3.75;3.45;;;20.40;65.20;;;;;;4982330;28;20034;-52
2022/09/04 07:02:02;;;;;;;4.33;3.10;;;20.60;66.20;;;;;;4989330;28;20038;-49
2022/09/04 07:04:35;;;;;;;3.55;3.03;;;20.60;65.70;;;;;;4990385;28;20383;-52
2022/09/04 07:07:10;;;;;;;;;;;20.70;65.50;;;;;;4999598;28;20487;-51
2022/09/04 07:09:51;;;;;;;5.53;2.72;;;20.80;65.00;;;;;;5002860;28;19921;-52
2022/09/04 07:12:45;;;;;;;2.72;1.92;;;20.80;65.30;;;;;;5010861;28;20096;-51
2022/09/04 07:15:34;;;;;;;2.10;1.90;;;20.90;65.80;;;;;;4999896;28;20042;-51
2022/09/04 07:18:22;;;;;;;3.78;1.95;;;20.90;64.90;;;;;;4989639;28;20504;-54
2022/09/04 07:21:11;;;;;;;2.63;2.30;;;21.00;65.70;;;;;;5010811;28;20156;-55
2022/09/04 07:23:57;;;;;;;3.17;2.20;;;21.10;65.80;;;;;;4990729;28;20076;-51
2022/09/04 07:26:46;;;;;;;1.88;1.70;;;21.20;65.40;;;;;;5001173;28;20034;-50
2022/09/04 07:29:31;;;;;;;2.53;2.33;;;21.30;65.00;;;;;;5002502;28;20045;-53
2022/09/04 07:32:17;;;;;;;1.70;1.60;;;21.40;64.80;;;;;;4998905;28;20042;-51
2022/09/04 07:34:58;;;;;;;2.30;1.80;;;21.40;64.40;;;;;;4987886;28;20380;-50
2022/09/04 07:37:35;;;;;;;2.83;2.20;;;21.50;64.10;;;;;;4990661;28;20053;-53
2022/09/04 07:40:30;;;;;;;1.90;1.80;;;21.60;63.90;;;;;;4991358;28;20042;-54
2022/09/04 07:43:22;;;;;;;1.88;1.45;;;21.70;64.20;;;;;;4996565;28;20042;-52
2022/09/04 07:46:04;;;;;;;2.97;1.40;;;21.80;63.80;;;;;;4998902;28;20049;-54
2022/09/04 07:48:45;;;;;;;1.85;1.70;;;21.90;63.60;;;;;;4977341;28;20534;-54
2022/09/04 07:51:16;;;;;;;2.93;1.80;;;22.00;63.80;;;;;;4982155;28;20097;-51
2022/09/04 07:53:49;;;;;;;1.92;1.83;;;22.10;63.00;;;;;;4997308;28;20034;-53
2022/09/04 07:56:24;;;;;;;1.92;1.83;;;22.10;62.90;;;;;;5001020;28;20507;-52
2022/09/04 07:59:15;;;;;;;4.13;2.00;;;22.20;62.50;;;;;;4994747;28;20050;-51
2022/09/04 08:02:16;;;;;;;2.17;1.90;;;22.30;62.30;;;;;;4994383;28;20117;-51
2022/09/04 08:04:43;;;;;;;1.80;1.65;;;22.50;61.90;;;;;;5003069;28;20085;-53
2022/09/04 08:07:32;;;;;;;2.05;1.75;;;22.50;62.00;;;;;;5006086;28;20072;-50
2022/09/04 08:10:29;;;;;;;1.48;1.38;;;22.60;62.10;;;;;;5013333;28;20046;-61
2022/09/04 08:13:12;;;;;;;2.00;1.40;;;22.70;62.00;;;;;;4994411;28;20038;-54
2022/09/04 08:16:05;;;;;;;1.95;1.42;;;22.80;61.30;;;;;;5003074;28;20049;-51
2022/09/04 08:18:53;;;;;;;1.83;1.73;;;22.90;60.80;;;;;;4986776;28;20062;-53
2022/09/04 08:21:30;;;;;;;2.33;1.50;;;22.90;61.10;;;;;;4980408;28;20057;-53
2022/09/04 08:24:04;;;;;;;2.28;1.80;;;23.00;60.20;;;;;;5003041;28;20077;-54
2022/09/04 08:26:46;;;;;;;1.33;1.23;;;23.10;60.30;;;;;;5014074;28;20042;-51
2022/09/04 08:29:42;;;;;;;2.40;1.50;;;23.20;60.10;;;;;;5004497;28;20053;-52
2022/09/04 08:32:43;;;;;;;1.35;1.25;;;23.20;59.60;;;;;;5003341;28;20046;-49
2022/09/04 08:35:39;;;;;;;2.05;1.70;;;23.30;59.10;;;;;;4977848;28;20038;-53
2022/09/04 08:38:36;;;;;;;2.80;1.90;;;23.40;59.30;;;;;;5003619;28;20503;-50
2022/09/04 08:41:44;;;;;;;1.33;1.23;;;23.60;59.40;;;;;;5000170;28;20498;-51
2022/09/04 08:44:37;;;;;;;2.58;1.27;;;23.60;59.00;;;;;;5004278;28;20046;-52
2022/09/04 08:47:23;;;;;;;2.25;1.67;;;23.70;58.60;;;;;;5013632;28;20042;-53
2022/09/04 08:50:21;;;;;;;1.05;1.05;;;23.70;58.20;;;;;;4990370;28;20039;-51
2022/09/04 08:53:36;;;;;;;2.00;1.65;;;23.80;58.10;;;;;;4998231;28;20050;-52
2022/09/04 08:56:40;;;;;;;2.20;1.50;;;23.90;57.80;;;;;;4924529;28;20078;-54
2022/09/04 08:59:29;;;;;;;1.98;1.50;;;24.00;57.50;;;;;;4980858;28;20062;-53
2022/09/04 09:02:14;;;;;;;2.10;1.20;;;24.10;56.20;;;;;;4990586;28;20356;-54
2022/09/04 09:05:18;;;;;;;1.65;1.40;;;24.20;56.60;;;;;;4977959;28;20126;-52
2022/09/04 09:08:05;;;;;;;2.88;1.50;;;24.30;56.20;;;;;;5004902;28;20053;-53
2022/09/04 09:10:55;;;;;;;2.35;1.60;;;24.30;55.60;;;;;;5000557;28;20050;-54
2022/09/04 09:13:41;;;;;;;1.83;1.73;;;24.40;56.10;;;;;;5003067;28;20049;-54
2022/09/04 09:16:41;;;;;;;1.45;1.35;;;24.40;55.80;;;;;;4991498;28;20042;-52
2022/09/04 09:19:10;;;;;;;2.38;1.40;;;24.50;55.40;;;;;;4994197;28;20515;-53
2022/09/04 09:22:03;;;;;;;2.20;1.38;;;24.60;55.40;;;;;;5002015;28;20050;-54
2022/09/04 09:24:51;;;;;;;2.45;1.27;;;24.70;54.80;;;;;;4993634;28;20038;-53
2022/09/04 09:28:06;;;;;;;1.70;1.60;;;24.80;55.10;;;;;;5004268;28;20100;-54
2022/09/04 09:31:09;;;;;;;1.75;1.13;;;24.90;55.00;;;;;;4923556;28;20052;-54
2022/09/04 09:34:25;;;;;;;1.42;1.33;;;25.00;55.10;;;;;;4988746;28;20030;-54
2022/09/04 09:37:27;;;;;;;1.13;1.00;;;25.10;54.80;;;;;;4978362;28;20504;-54
2022/09/04 09:39:57;;;;;;;1.23;1.10;;;25.20;54.10;;;;;;4992134;28;20494;-54
2022/09/04 09:43:02;;;;;;;3.25;1.60;;;25.30;54.10;;;;;;5004169;28;20073;-53
2022/09/04 09:46:10;;;;;;;1.40;1.20;;;25.30;53.80;;;;;;4974459;28;20140;-49
2022/09/04 09:49:04;;;;;;;1.08;1.00;;;25.40;54.10;;;;;;4939463;28;20100;-54
2022/09/04 09:51:58;;;;;;;1.40;1.30;;;25.50;53.70;;;;;;4995270;28;20088;-54
2022/09/04 09:54:36;;;;;;;0.98;0.98;;;25.60;53.50;;;;;;4997005;28;20046;-55
2022/09/04 09:57:39;;;;;;;1.20;1.10;;;25.60;53.50;;;;;;4996208;28;20372;-55
2022/09/04 10:00:21;;;;;;;2.38;1.88;;;25.70;53.10;;;;;;4990866;28;20573;-52
2022/09/04 10:02:48;;;;;;;;;;;25.80;52.90;;;;;;4985383;28;20504;-51
2022/09/04 10:05:43;;;;;;;1.13;0.75;;;25.90;53.40;;;;;;4994302;28;19927;-53
2022/09/04 10:08:35;;;;;;;0.90;0.90;;;26.10;52.80;;;;;;5002389;28;20042;-54
2022/09/04 10:11:22;;;;;;;;;;;26.20;52.50;;;;;;5008812;28;20034;-53
2022/09/04 10:14:10;;;;;;;1.95;1.00;;;26.30;53.20;;;;;;4995933;28;19925;-53
2022/09/04 10:16:51;;;;;;;1.45;1.35;;;26.50;51.90;;;;;;4996715;28;20388;-53
2022/09/04 10:19:56;;;;;;;0.80;0.80;;;26.60;51.20;;;;;;4983781;28;20447;-54
2022/09/04 10:22:57;;;;;;;1.00;0.88;;;26.70;50.70;;;;;;4987007;28;20038;-54
2022/09/04 10:25:43;;;;;;;1.27;1.20;;;26.90;50.70;;;;;;4989956;28;20084;-49
2022/09/04 10:28:34;;;;;;;1.05;1.05;;;27.00;49.90;;;;;;4958651;28;20621;-54
2022/09/04 10:31:32;;;;;;;1.30;0.98;;;27.00;49.60;;;;;;4990085;28;20030;-52
2022/09/04 10:34:14;;;;;;;2.30;1.10;;;27.20;49.20;;;;;;4965496;28;20054;-54
2022/09/04 10:37:08;;;;;;;1.35;0.95;;;27.30;48.70;;;;;;5002680;28;20080;-54
2022/09/04 10:43:31;;;;;;;1.35;0.98;;;27.50;48.00;;;;;;4982202;28;20047;-54
2022/09/04 10:46:02;;;;;;;1.02;0.90;;;27.60;47.90;;;;;;4988906;28;20085;-54
2022/09/04 10:48:35;;;;;;;0.80;0.80;;;27.70;47.10;;;;;;4981732;28;20039;-55
2022/09/04 10:51:26;;;;;;;1.13;0.90;;;27.70;47.00;;;;;;4991030;28;20499;-54
2022/09/04 10:54:28;;;;;;;1.08;1.00;;;27.80;46.20;;;;;;5003152;28;20038;-53
2022/09/04 10:57:17;;;;;;;1.52;1.15;;;27.80;46.00;;;;;;4980086;28;20051;-50
2022/09/04 11:00:04;;;;;;;1.65;0.90;;;27.90;46.50;;;;;;4989972;28;20042;-54
2022/09/04 11:02:40;;;;;;;1.27;0.80;;;27.90;46.40;;;;;;4980011;28;20046;-52
2022/09/04 11:05:28;;;;;;;0.73;0.73;;;28.00;44.70;;;;;;4991681;28;20066;-53
2022/09/04 11:08:41;;;;;;;0.85;0.85;;;28.10;44.80;;;;;;4999967;28;20113;-53
2022/09/04 11:11:35;;;;;;;2.05;1.23;;;28.10;45.10;;;;;;4999396;28;20046;-54
2022/09/04 11:14:32;;;;;;;1.00;0.75;;;28.20;44.60;;;;;;5003165;28;20034;-55
2022/09/04 11:17:45;;;;;;;0.80;0.80;;;28.20;44.50;;;;;;5000840;28;20038;-54
2022/09/04 11:20:54;;;;;;;1.40;1.00;;;28.30;45.20;;;;;;5004399;28;20379;-53
2022/09/04 11:23:36;;;;;;;1.75;0.98;;;28.30;44.10;;;;;;4971957;28;20093;-54
2022/09/04 11:26:40;;;;;;;1.00;0.95;;;28.50;43.90;;;;;;4975373;28;20039;-54
2022/09/04 11:29:23;;;;;;;2.03;1.27;;;28.60;43.90;;;;;;4994686;28;20057;-53
2022/09/04 11:32:30;;;;;;;1.00;1.00;;;28.70;43.60;;;;;;4999632;28;20113;-53
2022/09/04 11:35:28;;;;;;;3.70;1.20;;;28.80;43.50;;;;;;4975745;28;20039;-53
2022/09/04 11:38:16;;;;;;;1.17;1.10;;;28.90;43.30;;;;;;4998975;28;20034;-55
2022/09/04 11:41:09;;;;;;;4.18;1.45;;;29.00;42.60;;;;;;5005425;28;20108;-53
2022/09/04 11:44:09;;;;;;;2.20;1.00;;;29.10;41.20;;;;;;4997551;28;20038;-55
2022/09/04 11:47:03;;;;;;;3.03;1.50;;;29.20;40.90;;;;;;4913055;29;20049;-51
2022/09/04 11:49:43;;;;;;;1.50;1.27;;;29.30;40.50;;;;;;4977958;28;20092;-55
2022/09/04 11:52:22;;;;;;;1.42;1.40;;;29.30;39.90;;;;;;4994349;28;20268;-53
2022/09/04 11:55:12;;;;;;;4.00;1.50;;;29.40;39.60;;;;;;4994872;28;20096;-55
2022/09/04 11:57:59;;;;;;;1.58;1.30;;;29.40;39.10;;;;;;4986003;28;20046;-53
2022/09/04 12:00:58;;;;;;;2.38;1.58;;;29.40;39.40;;;;;;4998982;28;20045;-54
2022/09/04 12:03:30;;;;;;;2.08;1.75;;;29.40;39.40;;;;;;4987228;28;20073;-53
2022/09/04 12:06:33;;;;;;;1.55;1.42;;;29.40;39.20;;;;;;4986342;28;20042;-55
2022/09/04 12:09:00;;;;;;;3.63;1.70;;;29.40;38.80;;;;;;5005820;28;20043;-54
2022/09/04 12:11:55;;;;;;;1.80;1.70;;;29.30;39.40;;;;;;5014148;28;20116;-54
2022/09/04 12:14:22;;;;;;;;;;;29.40;39.30;;;;;;4997132;28;20100;-51
2022/09/04 12:17:47;;;;;;;3.22;1.30;;;29.50;41.10;;;;;;5002089;28;19938;-54
2022/09/04 12:20:46;;;;;;;1.83;1.50;;;29.50;39.70;;;;;;4944613;29;20055;-53
2022/09/04 12:23:26;;;;;;;2.72;1.90;;;29.60;39.80;;;;;;4954974;28;20121;-54
2022/09/04 12:26:04;;;;;;;1.33;1.23;;;29.80;39.20;;;;;;5001649;28;20070;-51
2022/09/04 12:29:04;;;;;;;1.60;1.50;;;29.90;39.00;;;;;;4988006;28;20089;-55
2022/09/04 12:31:53;;;;;;;2.45;1.73;;;30.10;39.00;;;;;;4994087;28;20108;-51
2022/09/04 12:34:23;;;;;;;1.75;1.45;;;30.30;39.00;;;;;;4964183;28;20059;-53
2022/09/04 12:37:19;;;;;;;1.90;1.48;;;30.40;38.00;;;;;;4994203;28;20096;-55
2022/09/04 12:40:28;;;;;;;1.38;1.27;;;30.40;37.90;;;;;;4973139;28;20145;-54
2022/09/04 12:43:19;;;;;;;2.47;1.80;;;30.60;38.10;;;;;;4992861;28;20042;-54
2022/09/04 12:46:02;;;;;;;2.63;1.40;;;30.70;38.20;;;;;;4993807;28;20050;-55
2022/09/04 12:48:59;;;;;;;1.73;1.48;;;30.80;38.00;;;;;;4979758;28;20507;-54
2022/09/04 12:51:42;;;;;;;2.40;1.50;;;31.00;38.20;;;;;;4989858;28;20408;-53
2022/09/04 12:54:38;;;;;;;3.13;1.33;;;31.10;37.50;;;;;;4993239;28;20051;-54
2022/09/04 12:57:32;;;;;;;2.35;1.40;;;31.30;37.90;;;;;;4996235;28;20112;-55
2022/09/04 13:00:09;;;;;;;1.50;1.40;;;31.50;37.60;;;;;;4992582;28;20046;-51
2022/09/04 13:03:21;;;;;;;1.63;1.52;;;31.70;37.10;;;;;;4987140;28;20125;-54
2022/09/04 13:06:04;;;;;;;1.08;0.98;;;31.90;37.40;;;;;;4989066;28;20046;-55
2022/09/04 13:08:58;;;;;;;1.98;1.20;;;32.00;36.60;;;;;;4974350;28;20038;-53
2022/09/04 13:11:53;;;;;;;2.45;1.17;;;32.20;36.20;;;;;;4981641;28;20093;-50
2022/09/04 13:14:41;;;;;;;1.10;1.00;;;32.40;35.90;;;;;;4983813;28;20104;-55
2022/09/04 13:17:36;;;;;;;1.77;1.17;;;32.50;36.00;;;;;;4998982;28;20054;-55
2022/09/04 13:20:33;;;;;;;1.65;1.50;;;32.70;35.50;;;;;;4991086;28;20034;-55
2022/09/04 13:23:22;;;;;;;2.50;1.27;;;32.80;35.20;;;;;;5001724;28;20433;-54
2022/09/04 13:26:32;;;;;;;2.35;1.48;;;32.90;35.10;;;;;;4995547;28;20046;-54
2022/09/04 13:29:21;;;;;;;1.58;1.48;;;32.90;34.90;;;;;;4994627;28;20100;-54
2022/09/04 13:32:11;;;;;;;1.33;1.23;;;33.00;34.20;;;;;;4991198;28;20525;-55
2022/09/04 13:35:11;;;;;;;1.65;1.27;;;33.20;34.60;;;;;;4987368;28;20058;-54
2022/09/04 13:37:53;;;;;;;1.05;1.05;;;33.40;34.30;;;;;;4999660;28;20502;-54
2022/09/04 13:40:39;;;;;;;1.80;1.23;;;33.70;34.00;;;;;;4988684;28;20058;-55
2022/09/04 13:43:20;;;;;;;1.13;1.08;;;34.20;34.10;;;;;;4998267;28;20046;-57
2022/09/04 13:45:52;;;;;;;0.98;0.90;;;34.80;33.30;;;;;;5007720;28;20491;-54
2022/09/04 13:48:45;;;;;;;1.33;1.23;;;35.50;32.10;;;;;;4981409;28;20092;-55
2022/09/04 13:51:18;;;;;;;2.20;1.20;;;36.00;32.30;;;;;;4998036;28;20053;-55
2022/09/04 13:54:12;;;;;;;1.67;0.90;;;36.70;31.10;;;;;;4992658;28;20042;-55
2022/09/04 13:56:50;;;;;;;1.85;1.10;;;37.40;31.20;;;;;;4987480;28;20038;-57
2022/09/04 13:59:19;;;;;;;3.05;1.10;;;38.00;30.00;;;;;;4991576;28;20045;-54
2022/09/04 14:01:50;;;;;;;1.17;1.05;;;38.50;29.80;;;;;;4992741;28;20070;-53
2022/09/04 14:04:24;;;;;;;0.98;0.95;;;39.00;28.90;;;;;;4981935;28;20042;-54
2022/09/04 14:07:04;;;;;;;1.35;1.00;;;39.60;28.70;;;;;;4989747;28;20038;-54
2022/09/04 14:09:37;;;;;;;0.80;0.80;;;40.20;27.80;;;;;;4987981;28;20515;-55
2022/09/04 14:12:50;;;;;;;1.00;0.80;;;40.80;27.90;;;;;;4993121;28;20096;-53
2022/09/04 14:15:38;;;;;;;2.55;0.63;;;41.50;28.40;;;;;;4989113;28;20096;-53
2022/09/04 14:18:38;;;;;;;1.83;0.93;;;42.10;26.90;;;;;;4993075;28;20057;-52
2022/09/04 14:21:40;;;;;;;1.83;0.98;;;42.70;27.20;;;;;;4999443;28;20117;-53
2022/09/04 14:24:22;;;;;;;0.55;0.55;;;43.30;26.50;;;;;;4999214;28;20038;-53
2022/09/04 14:27:12;;;;;;;1.65;0.70;;;43.60;26.10;;;;;;4995079;28;20043;-54
2022/09/04 14:29:46;;;;;;;1.95;1.15;;;43.70;25.80;;;;;;5001637;28;20046;-53
2022/09/04 14:32:13;;;;;;;0.90;0.90;;;43.90;25.30;;;;;;4996359;28;20046;-53
2022/09/04 14:35:14;;;;;;;1.00;0.73;;;43.90;25.50;;;;;;4990634;28;20034;-51
2022/09/04 14:37:58;;;;;;;0.98;0.80;;;44.00;25.50;;;;;;4988598;28;20066;-55
2022/09/04 14:40:44;;;;;;;1.75;1.08;;;44.00;24.90;;;;;;4987632;28;20038;-55
2022/09/04 14:43:34;;;;;;;1.08;1.00;;;44.10;25.20;;;;;;4990075;28;20507;-54
2022/09/04 14:46:19;;;;;;;0.90;0.90;;;44.00;24.80;;;;;;5003194;28;20104;-56
2022/09/04 14:48:49;;;;;;;1.42;0.50;;;44.10;24.50;;;;;;4975635;28;20431;-52